Flight Track Log - Related Links

Times and Time Zones

All times are in EDT time to prevent confusion due to time zone crossing. See the SWA1044 flight status page for this flight to view local times or setup timezone preferences in your user account.

Time Position Orientation Groundspeed Altitude Reporting Facility
EDT Latitude Longitude Course Direction KTS MPH feet Rate Location/Type
Sat 08:10:56 PM 39.8333 -104.9000 259° West 276 318 10,000  Level Denver TRACON
Sat 08:12:08 PM 39.8331 -105.0339 270° West 326 375 11,900 2,194 Climbing Denver Center
Sat 08:13:00 PM 39.4011 -107.0123 252° West  Level FlightAware Approximate
Sat 08:13:10 PM 39.8042 -105.1639 254° West 348 400 14,900  Level Denver Center
Sat 08:14:00 PM 39.3708 -107.1414 253° West  Level FlightAware Approximate
Sat 08:14:12 PM 39.7786 -105.2825 254° West 345 397 17,400  Level Denver Center
Sat 08:15:00 PM 39.8360 -104.8008 258° West  Level FlightAware Approximate
Sat 08:15:14 PM 39.7525 -105.4056 255° West 350 403 19,600  Level Denver Center
Sat 08:16:00 PM 39.8151 -104.9354 259° West  Level FlightAware Approximate
Sat 08:16:16 PM 39.7275 -105.5231 255° West 352 405 21,300  Level Denver Center
Sat 08:17:18 PM 39.6953 -105.6850 256° West 386 444 23,400 1,548 Climbing Denver Center
Sat 08:18:20 PM 39.6806 -105.8264 262° West 396 456 24,500 1,113 Climbing Denver Center
Sat 08:19:22 PM 39.6642 -105.9767 262° West 417 480 25,700 1,258 Climbing Denver Center
Sat 08:20:24 PM 39.6372 -106.1297 257° West 432 497 27,100 1,355 Climbing Denver Center
Sat 08:21:26 PM 39.5947 -106.2706 249° West 443 510 28,500 1,839 Climbing Denver Center
Sat 08:22:28 PM 39.5447 -106.4506 250° West 443 510 30,900 1,887 Climbing Denver Center
Sat 08:23:30 PM 39.5044 -106.5869 249° West 431 496 32,400 1,452 Climbing Denver Center
Sat 08:24:32 PM 39.4647 -106.7283 250° West 426 490 33,900 1,403 Climbing Denver Center
Sat 08:25:34 PM 39.4236 -106.8667 249° West 418 481 35,300 1,016 Climbing Denver Center
Sat 08:26:36 PM 39.3778 -107.0333 250° West 413 475 36,000 339 Climbing Denver Center
Sat 08:27:38 PM 39.3350 -107.1742 249° West 422 486 36,000  Level Denver Center
Sat 08:28:40 PM 39.2947 -107.3119 249° West 411 473 36,000  Level Denver Center
Sat 08:29:42 PM 39.2544 -107.4500 249° West 410 472 36,000  Level Denver Center
Sat 08:30:44 PM 39.2128 -107.5892 249° West 413 475 36,000  Level Denver Center
Sat 08:31:46 PM 39.1714 -107.7275 249° West 414 476 36,000  Level Denver Center
Sat 08:32:48 PM 39.1292 -107.8653 248° West 414 476 36,000  Level Denver Center
Sat 08:33:49 PM 39.0817 -108.0308 250° West 413 475 36,000  Level Denver Center
Sat 08:34:51 PM 39.0386 -108.1697 248° West 414 476 36,000  Level Denver Center
Sat 08:35:53 PM 38.9958 -108.3100 249° West 418 481 36,000  Level Denver Center
Sat 08:36:55 PM 38.9511 -108.4517 248° West 429 494 36,000  Level Denver Center
Sat 08:37:57 PM 38.9106 -108.5914 250° West 421 484 36,000  Level Denver Center
Sat 08:38:58 PM 38.8678 -108.7294 248° West 418 481 36,000  Level Denver Center
Sat 08:40:00 PM 38.8253 -108.8669 248° West 416 479 36,000  Level Denver Center
Sat 08:41:02 PM 38.7831 -109.0053 249° West 415 478 36,000  Level Denver Center
Sat 08:42:04 PM 38.7306 -109.1714 248° West 416 479 36,000  Level Denver Center
Sat 08:43:05 PM 38.6881 -109.3100 249° West 417 480 36,000  Level Denver Center
Sat 08:44:07 PM 38.6439 -109.4483 248° West 418 481 36,000  Level Denver Center
Sat 08:45:09 PM 38.5994 -109.5858 248° West 418 481 36,000  Level Denver Center
Sat 08:46:10 PM 38.5564 -109.7217 248° West 413 475 36,000  Level Denver Center
Sat 08:47:12 PM 38.5117 -109.8597 248° West 421 484 36,000  Level Denver Center
Sat 08:48:14 PM 38.4547 -109.9869 240° Southwest 413 475 36,000  Level Denver Center
Sat 08:49:15 PM 38.3989 -110.1167 241° Southwest 414 476 36,000  Level Denver Center
Sat 08:50:17 PM 38.3306 -110.2742 241° Southwest 422 486 36,000 -488 Level Denver Center
Sat 08:51:18 PM 38.2744 -110.4031 241° Southwest 420 483 35,000 -1,024 Descending Denver Center
Sat 08:52:20 PM 38.2194 -110.5306 241° Southwest 416 479 33,900 -968 Descending Denver Center
Sat 08:53:22 PM 38.1644 -110.6553 241° Southwest 408 470 33,000 -947 Descending Denver Center
Sat 08:53:55 PM 38.1322 -110.7317 242° Southwest 408 470 32,400 -632 Descending Salt Lake Center
Sat 08:54:57 PM 38.0756 -110.8600 241° Southwest 412 474 32,000 -195 Descending Salt Lake Center
Sat 08:55:58 PM 38.0197 -110.9842 240° Southwest 420 483 32,000  Level Salt Lake Center
Sat 08:56:59 PM 37.9614 -111.1169 241° Southwest 425 489 32,000  Level Salt Lake Center
Sat 08:58:01 PM 37.8894 -111.2747 240° Southwest 430 495 32,000  Level Salt Lake Center
Sat 08:59:03 PM 37.8328 -111.4067 241° Southwest 429 494 32,000  Level Salt Lake Center
Sat 09:00:04 PM 37.7744 -111.5333 240° Southwest 423 487 32,000  Level Salt Lake Center
Sat 09:01:05 PM 37.7161 -111.6606 240° Southwest 421 484 32,000  Level Salt Lake Center
Sat 09:02:07 PM 37.6608 -111.7883 241° Southwest 417 480 32,000  Level Salt Lake Center
Sat 09:03:08 PM 37.6017 -111.9158 240° Southwest 417 480 32,000  Level Salt Lake Center
Sat 09:04:09 PM 37.5428 -112.0425 240° Southwest 418 481 32,000  Level Salt Lake Center
Sat 09:05:11 PM 37.4842 -112.1700 240° Southwest 418 481 32,000  Level Salt Lake Center
Sat 09:06:12 PM 37.4247 -112.2975 240° Southwest 418 481 32,000  Level Salt Lake Center
Sat 09:07:13 PM 37.3658 -112.4247 240° Southwest 418 481 32,000  Level Salt Lake Center
Sat 09:08:14 PM 37.3050 -112.5542 239° Southwest 419 482 32,000  Level Salt Lake Center
Sat 09:09:16 PM 37.2442 -112.6831 239° Southwest 420 483 32,000  Level Salt Lake Center
Sat 09:10:17 PM 37.1708 -112.8392 240° Southwest 425 489 32,000  Level Salt Lake Center
Sat 09:11:18 PM 37.1094 -112.9694 239° Southwest 427 491 32,000  Level Salt Lake Center
Sat 09:12:20 PM 37.0478 -113.1003 239° Southwest 431 496 32,000  Level Salt Lake Center
Sat 09:13:21 PM 36.9856 -113.2306 239° Southwest 431 496 32,000  Level Salt Lake Center
Sat 09:14:22 PM 36.9242 -113.3589 239° Southwest 431 496 32,000 -634 Level Salt Lake Center
Sat 09:15:24 PM 36.8644 -113.4864 240° Southwest 429 494 30,700 -1,756 Descending Salt Lake Center
Sat 09:16:25 PM 36.8072 -113.6061 239° Southwest 408 470 28,400 -2,213 Descending Salt Lake Center
Sat 09:17:26 PM 36.7522 -113.7211 239° Southwest 393 452 26,200 -2,102 Descending Salt Lake Center
Sat 09:18:42 PM 36.6881 -113.8544 239° Southwest 375 432 23,600 -2,217 Descending Los Angeles Center
Sat 09:19:44 PM 36.6253 -113.9811 238° Southwest 361 415 21,100 -2,195 Descending Los Angeles Center
Sat 09:20:45 PM 36.5769 -114.0831 239° Southwest 349 402 19,100 -2,000 Descending Los Angeles Center
Sat 09:21:47 PM 36.5317 -114.1831 241° Southwest 338 389 17,000 -2,100 Descending Los Angeles Center
Sat 09:22:05 PM 36.5153 -114.2189 240° Southwest 334 384 16,300 -1,967 Descending Los Angeles Center
Sat 09:22:48 PM 36.4872 -114.2814 241° Southwest 335 386 15,000 -1,881 Descending Los Angeles Center
Sat 09:23:12 PM 36.4658 -114.3269 240° Southwest 319 367 14,200 -1,935 Descending Los Angeles Center
Sat 09:23:50 PM 36.4408 -114.3781 239° Southwest 331 381 13,000 -1,900 Descending Los Angeles Center
Sat 09:24:12 PM 36.4222 -114.4222 242° Southwest 325 374 12,300 -885 Descending Los Angeles Center
Sat 09:24:51 PM 36.3958 -114.4742 238° Southwest 327 376 12,100 -492 Descending Los Angeles Center
Sat 09:25:13 PM 36.3597 -114.4917 201° Southwest 311 358 11,800 -871 Descending Los Angeles Center
Sat 09:25:53 PM 36.3114 -114.4931 181° South 324 373 11,200 -1,180 Descending Los Angeles Center
Sat 09:26:14 PM 36.2692 -114.4931 180° South 297 342 10,600 -984 Descending Los Angeles Center
Sat 09:26:54 PM 36.2272 -114.4964 184° South 310 357 10,200 -885 Descending Los Angeles Center
Sat 09:27:15 PM 36.1864 -114.4997 184° South 292 336 9,700 -1,065 Descending Los Angeles Center
Sat 09:27:56 PM 36.1306 -114.4981 179° South 295 339 9,100 -800 Descending Los Angeles Center
Sat 09:28:15 PM 36.1083 -114.4994 183° South 281 323 8,900 -689 Descending Los Angeles Center
Sat 09:28:57 PM 36.0667 -114.5158 198° South 253 291 8,400 -689 Descending Los Angeles Center
Sat 09:29:16 PM 36.0617 -114.5419 257° West 245 282 8,200 -484 Descending Los Angeles Center
Sat 09:29:59 PM 36.0653 -114.5986 275° West 244 281 7,900 -197 Descending Los Angeles Center
Sat 09:30:17 PM 36.0667 -114.6231 274° West 240 276 8,000  Climbing Los Angeles Center
Sat 09:31:01 PM 36.0708 -114.6839 275° West 246 283 7,900 -98 Descending Los Angeles Center
Sat 09:31:18 PM 36.0706 -114.7094 269° West 250 288 7,900 -295 Level Los Angeles Center
Sat 09:32:02 PM 36.0736 -114.7669 274° West 246 283 7,600 -985 Descending Los Angeles Center
Sat 09:32:25 PM 36.0742 -114.8042 271° West 244 281 6,800 -1,161 Descending Los Angeles Center
Sat 09:33:04 PM 36.0728 -114.8517 268° West 246 283 6,400 -600 Descending Los Angeles Center
Sat 09:33:25 PM 36.0736 -114.8897 272° West 243 280 6,200 -1,180 Descending Los Angeles Center
Sat 09:34:05 PM 36.0739 -114.9439 270° West 242 278 5,200 -1,574 Descending Los Angeles Center
Sat 09:34:26 PM 36.0739 -114.9694 270° West 236 272 4,600 -1,258 Descending Los Angeles Center
Sat 09:35:07 PM 36.0739 -115.0186 270° West 218 251 3,900 -1,180 Descending Los Angeles Center
Sat 09:35:27 PM 36.0739 -115.0386 270° West 188 216 3,400 -1,082 Descending Los Angeles Center
Sat 09:36:08 PM 36.0736 -115.0764 269° West 175 201 2,800 -885 Descending Los Angeles Center
Sat 09:36:28 PM 36.0736 -115.0972 270° West 145 167 2,500 -774 Descending Los Angeles Center
Sat 09:37:10 PM 36.0731 -115.1300 269° West 150 173 2,000 -714 Descending Los Angeles Center
Sat 09:39:00 PM 36.0667 -115.1500 270° West  Level FlightAware Approximate

Login

Don't have an account? Register now (free) for customized features, flight alerts, and more!